Terminal Aerodrome Forecast
Issued by NWS Sterling, VA

Current Version | Previous Version | Graphics & Text | Print | Product List | Glossary On
Versions: 1 2 3 4 5 6 7 8 9 10 11 12 13 14 15 16 17 18 19 20 21 22 23 24
000
FTUS41 KLWX 250800 AAA
TAFDCA
TAF AMD
KDCA 250853Z 2509/2606 30006KT P6SM BKN150
     FM252300 00000KT P6SM BKN130=

USA.gov is the U.S. government's official web portal to all federal, state and local government web resources and services.